createdAt,value
2019-01-25T00:00:34.988Z,99.50
2019-01-25T00:03:09.968Z,95.63
2019-01-25T00:05:34.874Z,98.93
2019-01-25T00:08:04.347Z,96.10
2019-01-25T00:10:33.532Z,97.23
2019-01-25T00:13:02.564Z,97.93
2019-01-25T00:15:31.599Z,102.43
2019-01-25T00:18:00.554Z,95.70
2019-01-25T00:20:29.482Z,90.60
2019-01-25T00:22:58.422Z,103.37
2019-01-25T00:25:27.462Z,98.00
2019-01-25T00:27:56.527Z,98.17
2019-01-25T00:30:25.587Z,100.03
2019-01-25T00:32:54.562Z,103.27
2019-01-25T00:35:23.560Z,97.23
2019-01-25T00:37:52.602Z,93.73
2019-01-25T00:40:21.805Z,98.23
2019-01-25T00:42:50.845Z,91.97
2019-01-25T00:45:19.901Z,88.97
2019-01-25T00:47:48.898Z,105.27
2019-01-25T00:50:18.959Z,99.17
2019-01-25T00:52:48.152Z,90.33
2019-01-25T00:55:17.155Z,93.33
2019-01-25T00:57:46.079Z,101.67
2019-01-25T01:00:21.208Z,100.03
2019-01-25T01:02:50.959Z,91.07
2019-01-25T01:05:20.451Z,96.40
2019-01-25T01:07:51.487Z,88.93
2019-01-25T01:10:21.407Z,93.00
2019-01-25T01:12:51.274Z,102.63
2019-01-25T01:15:20.486Z,99.87
2019-01-25T01:17:49.707Z,94.13
2019-01-25T01:20:19.464Z,93.87
2019-01-25T01:22:48.754Z,101.97
2019-01-25T01:25:18.022Z,94.00
2019-01-25T01:27:47.059Z,100.77
2019-01-25T01:30:24.029Z,94.33
2019-01-25T01:32:53.704Z,96.53
2019-01-25T01:35:22.887Z,97.13
2019-01-25T01:37:53.058Z,90.53
2019-01-25T01:40:23.996Z,94.70
2019-01-25T01:42:54.239Z,99.27
2019-01-25T01:45:23.418Z,97.47
2019-01-25T01:47:52.564Z,90.50
2019-01-25T01:50:21.569Z,98.70
2019-01-25T01:52:51.468Z,91.03
2019-01-25T01:55:20.512Z,99.57
2019-01-25T01:57:49.781Z,92.83
2019-01-25T02:00:21.255Z,93.87
2019-01-25T02:02:50.508Z,96.40
2019-01-25T02:05:19.860Z,99.43
2019-01-25T02:07:48.872Z,100.63
2019-01-25T02:10:29.180Z,98.97
2019-01-25T02:12:53.759Z,105.87
2019-01-25T02:15:23.211Z,89.33
2019-01-25T02:17:52.422Z,96.03
2019-01-25T02:20:23.683Z,100.53
2019-01-25T02:22:52.700Z,98.93
2019-01-25T02:25:21.894Z,97.30
2019-01-25T02:27:51.198Z,91.53
2019-01-25T02:30:21.530Z,98.17
2019-01-25T02:32:50.835Z,102.20
2019-01-25T02:35:19.845Z,101.43
2019-01-25T02:37:48.797Z,95.03
2019-01-25T02:40:19.797Z,100.40
2019-01-25T02:42:49.066Z,93.37
2019-01-25T02:45:18.234Z,99.30
2019-01-25T02:47:47.234Z,99.33
2019-01-25T02:50:17.619Z,98.20
2019-01-25T02:52:46.899Z,93.10
2019-01-25T02:55:16.210Z,99.57
2019-01-25T02:57:45.538Z,91.53
2019-01-25T03:00:22.702Z,94.03
2019-01-25T03:02:52.154Z,96.17
2019-01-25T03:05:21.994Z,98.60
2019-01-25T03:09:27.973Z,101.33
2019-01-25T03:11:08.591Z,93.03
2019-01-25T03:14:30.568Z,99.30
2019-01-25T03:17:08.270Z,93.53
2019-01-25T03:22:52.105Z,90.50
2019-01-25T03:28:55.634Z,90.97
2019-01-25T03:31:40.931Z,95.37
2019-01-25T03:32:00.382Z,95.97
2019-01-25T03:34:46.884Z,93.37
2019-01-25T03:37:58.273Z,90.93
2019-01-25T03:45:22.914Z,96.53
2019-01-25T03:51:40.731Z,94.40
2019-01-25T03:55:46.621Z,91.70
2019-01-25T03:57:05.914Z,93.00
2019-01-25T04:01:21.641Z,91.57
2019-01-25T04:02:18.180Z,100.93
2019-01-25T04:05:37.033Z,94.67
2019-01-25T04:11:37.117Z,99.03
2019-01-25T04:20:55.703Z,95.53
2019-01-25T04:23:38.930Z,99.87
2019-01-25T04:27:06.787Z,100.30
2019-01-25T04:29:51.360Z,92.53
2019-01-25T04:33:01.690Z,91.47
2019-01-25T04:36:10.672Z,90.80
2019-01-25T04:39:34.006Z,91.57
2019-01-25T04:44:53.838Z,100.70
2019-01-25T04:47:55.719Z,98.57
2019-01-25T04:50:28.992Z,98.33
2019-01-25T04:53:13.506Z,93.10
2019-01-25T04:55:56.479Z,94.77
2019-01-25T04:58:35.475Z,95.30
2019-01-25T05:01:12.772Z,101.70
2019-01-25T05:04:12.379Z,88.37
2019-01-25T05:06:36.660Z,98.67
2019-01-25T05:09:26.149Z,91.13
2019-01-25T05:11:58.467Z,100.90
2019-01-25T05:14:34.155Z,97.30
2019-01-25T05:17:17.040Z,95.40
2019-01-25T05:19:50.946Z,95.47
2019-01-25T05:22:21.126Z,91.27
2019-01-25T05:24:54.122Z,101.00
2019-01-25T05:27:23.796Z,101.77
2019-01-25T05:30:12.505Z,89.73
2019-01-25T05:32:42.731Z,97.20
2019-01-25T05:35:41.165Z,104.17
2019-01-25T05:38:33.251Z,90.50
2019-01-25T05:41:02.494Z,99.53
2019-01-25T05:43:46.339Z,91.50
2019-01-25T05:46:16.202Z,95.40
2019-01-25T05:48:49.987Z,98.53
2019-01-25T05:51:33.627Z,97.73
2019-01-25T05:54:08.935Z,100.27
2019-01-25T06:02:56.709Z,89.97
2019-01-25T06:06:11.783Z,98.73
2019-01-25T06:12:53.398Z,91.97
2019-01-25T06:16:05.561Z,95.63
2019-01-25T06:18:41.393Z,90.63
2019-01-25T06:25:54.821Z,94.23
2019-01-25T06:28:24.940Z,96.20
2019-01-25T06:33:41.717Z,99.63
2019-01-25T06:36:12.222Z,99.33
2019-01-25T06:38:44.424Z,104.90
2019-01-25T06:41:15.546Z,99.03
2019-01-25T06:43:44.891Z,107.23
2019-01-25T06:46:14.456Z,101.20
2019-01-25T06:48:43.818Z,105.60
2019-01-25T06:51:13.263Z,101.50
2019-01-25T06:53:42.487Z,101.53
2019-01-25T06:56:12.010Z,97.13
2019-01-25T06:58:56.687Z,98.83
2019-01-25T07:01:33.301Z,108.13
2019-01-25T07:04:02.402Z,101.27
2019-01-25T07:06:31.952Z,103.47
2019-01-25T07:09:01.450Z,115.73
2019-01-25T07:11:30.855Z,106.30
2019-01-25T07:14:00.201Z,123.50
2019-01-25T07:16:29.471Z,112.30
2019-01-25T07:18:58.845Z,115.33
2019-01-25T07:21:28.170Z,111.50
2019-01-25T07:23:57.533Z,127.70
2019-01-25T07:26:26.777Z,113.97
2019-01-25T07:28:55.941Z,98.17
2019-01-25T07:35:09.071Z,109.93
2019-01-25T07:37:41.596Z,104.20
2019-01-25T07:40:14.480Z,99.83
2019-01-25T07:43:04.056Z,107.13
2019-01-25T07:45:48.020Z,109.37
2019-01-25T07:48:17.459Z,107.60
2019-01-25T07:50:47.010Z,111.37
2019-01-25T07:56:07.071Z,110.40
2019-01-25T07:59:09.029Z,111.97
2019-01-25T08:01:40.001Z,110.23
2019-01-25T08:04:28.781Z,108.47
2019-01-25T08:06:58.861Z,101.53
2019-01-25T08:09:28.166Z,101.60
2019-01-25T08:11:57.593Z,105.47
2019-01-25T08:14:26.997Z,102.80
2019-01-25T08:16:56.498Z,109.47
2019-01-25T08:19:25.737Z,98.43
2019-01-25T08:21:55.104Z,104.60
2019-01-25T08:24:24.373Z,102.73
2019-01-25T08:26:53.555Z,103.57
2019-01-25T08:29:27.882Z,106.30
2019-01-25T08:31:53.760Z,108.03
2019-01-25T08:34:23.265Z,109.00
2019-01-25T08:36:52.390Z,106.23
2019-01-25T08:39:21.675Z,112.63
2019-01-25T08:41:50.845Z,107.93
2019-01-25T08:44:40.894Z,113.20
2019-01-25T08:47:11.052Z,107.87
2019-01-25T08:49:40.661Z,105.97
2019-01-25T08:52:10.821Z,107.03
2019-01-25T08:54:40.133Z,122.33
2019-01-25T08:57:09.448Z,120.47
2019-01-25T08:59:39.011Z,123.03
2019-01-25T09:02:08.149Z,107.47
2019-01-25T09:04:37.353Z,116.20
2019-01-25T09:07:06.678Z,113.03
2019-01-25T09:09:35.705Z,106.20
2019-01-25T09:12:04.898Z,114.23
2019-01-25T09:14:33.801Z,106.83
2019-01-25T09:17:02.679Z,113.50
2019-01-25T09:19:31.561Z,108.73
2019-01-25T09:22:00.533Z,109.60
2019-01-25T09:24:29.522Z,118.43
2019-01-25T09:26:58.539Z,122.00
2019-01-25T09:29:27.376Z,111.93
2019-01-25T09:31:56.514Z,109.80
2019-01-25T09:34:25.333Z,111.33
2019-01-25T09:36:54.276Z,112.47
2019-01-25T09:39:23.389Z,118.37
2019-01-25T09:41:52.254Z,117.80
2019-01-25T09:44:21.189Z,113.70
2019-01-25T09:46:50.179Z,105.50
2019-01-25T09:49:19.109Z,118.27
2019-01-25T09:51:48.089Z,114.03
2019-01-25T09:54:17.078Z,116.80
2019-01-25T09:56:45.918Z,110.20
2019-01-25T09:59:14.884Z,104.70
2019-01-25T10:01:43.804Z,105.70
2019-01-25T10:04:12.745Z,106.63
2019-01-25T10:06:41.938Z,100.53
2019-01-25T10:09:10.902Z,110.17
2019-01-25T10:11:39.710Z,101.37
2019-01-25T10:14:08.991Z,115.80
2019-01-25T10:16:37.831Z,110.87
2019-01-25T10:19:06.829Z,112.93
2019-01-25T10:21:35.650Z,106.67
2019-01-25T10:24:04.626Z,105.83
2019-01-25T10:26:33.607Z,99.63
2019-01-25T10:29:02.553Z,111.17
2019-01-25T10:31:31.559Z,108.23
2019-01-25T10:34:00.567Z,110.93
2019-01-25T10:36:29.590Z,104.83
2019-01-25T10:38:58.574Z,119.37
2019-01-25T10:41:27.511Z,113.47
2019-01-25T10:43:56.487Z,108.83
2019-01-25T10:46:25.551Z,108.57
2019-01-25T10:48:54.579Z,117.10
2019-01-25T10:51:23.618Z,109.07
2019-01-25T10:53:52.522Z,109.73
2019-01-25T10:56:21.547Z,102.13
2019-01-25T10:58:50.586Z,98.63
2019-01-25T11:01:19.492Z,113.20
2019-01-25T11:03:48.614Z,101.23
2019-01-25T11:06:17.512Z,100.27
2019-01-25T11:08:46.551Z,100.00
2019-01-25T11:11:15.790Z,86.13
2019-01-25T11:13:45.110Z,87.90
2019-01-25T11:16:14.067Z,87.60
2019-01-25T11:18:43.081Z,90.33
2019-01-25T11:21:11.901Z,91.87
2019-01-25T11:23:40.811Z,93.30
2019-01-25T11:26:09.781Z,85.90
2019-01-25T11:28:38.686Z,93.50
2019-01-25T11:31:07.642Z,76.50
2019-01-25T11:33:36.639Z,76.83
2019-01-25T11:36:05.706Z,79.73
2019-01-25T11:38:34.515Z,78.60
2019-01-25T11:41:03.533Z,79.20
2019-01-25T11:43:32.899Z,81.93
2019-01-25T11:46:01.941Z,71.67
2019-01-25T11:48:31.021Z,71.17
2019-01-25T11:50:59.917Z,69.57
2019-01-25T11:53:28.868Z,73.40
2019-01-25T11:55:57.766Z,77.83
2019-01-25T11:58:26.728Z,66.07
2019-01-25T12:00:55.707Z,75.67
2019-01-25T12:03:24.702Z,73.30
2019-01-25T12:05:53.601Z,76.50
2019-01-25T12:08:22.622Z,74.43
2019-01-25T12:10:51.510Z,72.27
2019-01-25T12:13:20.406Z,54.17
2019-01-25T12:15:49.317Z,57.23
2019-01-25T12:18:18.218Z,51.90
2019-01-25T12:20:47.038Z,49.83
2019-01-25T12:23:16.035Z,55.17
2019-01-25T12:25:45.025Z,52.10
2019-01-25T12:28:14.019Z,50.53
2019-01-25T12:30:42.913Z,56.93
2019-01-25T12:33:11.842Z,55.03
2019-01-25T12:35:42.687Z,65.57
2019-01-25T12:38:11.932Z,62.17
2019-01-25T12:40:42.405Z,63.30
2019-01-25T12:43:11.833Z,55.33
2019-01-25T12:45:40.768Z,68.07
2019-01-25T12:48:09.833Z,64.20
2019-01-25T12:51:03.189Z,69.00
2019-01-25T12:53:32.953Z,63.70
2019-01-25T12:56:01.907Z,69.30
2019-01-25T12:58:31.014Z,68.13
2019-01-25T13:01:01.376Z,70.97
2019-01-25T13:03:30.399Z,69.67
2019-01-25T13:05:59.420Z,69.77
2019-01-25T13:08:28.395Z,65.37
2019-01-25T13:10:57.332Z,72.13
2019-01-25T13:13:31.543Z,73.60
2019-01-25T13:15:57.173Z,76.53
2019-01-25T13:18:26.019Z,75.23
2019-01-25T13:20:54.997Z,68.80
2019-01-25T13:23:23.953Z,76.70
2019-01-25T13:25:52.751Z,78.27
2019-01-25T13:28:21.563Z,82.57
2019-01-25T13:30:50.525Z,69.60
2019-01-25T13:33:19.656Z,69.77
2019-01-25T13:35:48.583Z,71.40
2019-01-25T13:38:17.642Z,67.70
2019-01-25T13:40:46.661Z,68.43
2019-01-25T13:43:15.498Z,76.10
2019-01-25T13:45:44.399Z,78.57
2019-01-25T13:48:13.312Z,81.27
2019-01-25T13:50:42.145Z,80.60
2019-01-25T13:53:11.151Z,79.03
2019-01-25T13:55:40.131Z,65.57
2019-01-25T13:58:09.154Z,62.20
2019-01-25T14:00:38.072Z,67.33
2019-01-25T14:03:07.035Z,64.63
2019-01-25T14:05:35.949Z,52.13
2019-01-25T14:08:05.284Z,48.40
2019-01-25T14:10:35.453Z,52.37
2019-01-25T14:13:05.127Z,44.23
2019-01-25T14:15:34.423Z,47.70
2019-01-25T14:18:03.393Z,51.67
2019-01-25T14:20:32.594Z,42.27
2019-01-25T14:23:01.763Z,39.37
2019-01-25T14:25:30.789Z,43.93
2019-01-25T14:28:00.164Z,39.47
2019-01-25T14:30:31.949Z,38.07
2019-01-25T14:33:00.950Z,38.47
2019-01-25T14:35:29.986Z,41.00
2019-01-25T14:37:59.001Z,34.17
2019-01-25T14:40:28.324Z,30.93
2019-01-25T14:42:57.435Z,36.47
2019-01-25T14:45:27.081Z,31.00
2019-01-25T14:47:56.070Z,16.83
2019-01-25T14:50:25.870Z,9.77
2019-01-25T14:52:54.838Z,9.83
2019-01-25T14:55:23.775Z,10.63
2019-01-25T14:57:52.757Z,12.13
2019-01-25T15:00:21.716Z,13.03
2019-01-25T15:02:50.626Z,14.53
2019-01-25T15:05:19.748Z,15.27
2019-01-25T15:07:48.726Z,14.93
2019-01-25T15:10:19.757Z,16.57
2019-01-25T15:12:49.599Z,14.30
2019-01-25T15:15:18.765Z,15.77
2019-01-25T15:17:48.009Z,16.30
2019-01-25T15:20:19.352Z,15.77
2019-01-25T15:22:48.535Z,16.63
2019-01-25T15:25:17.578Z,15.13
2019-01-25T15:27:46.704Z,16.23
2019-01-25T15:30:18.308Z,12.70
2019-01-25T15:32:47.651Z,15.93
2019-01-25T15:35:17.735Z,16.03
2019-01-25T15:37:46.958Z,13.53
2019-01-25T15:40:16.364Z,16.53
2019-01-25T15:42:45.949Z,13.40
2019-01-25T15:45:16.133Z,18.53
2019-01-25T15:47:45.556Z,15.43
2019-01-25T15:50:18.180Z,12.67
2019-01-25T15:52:47.302Z,15.53
2019-01-25T15:55:17.307Z,18.13
2019-01-25T15:57:46.411Z,12.90
2019-01-25T16:00:17.514Z,11.53
2019-01-25T16:02:46.678Z,14.93
2019-01-25T16:05:17.122Z,12.67
2019-01-25T16:07:46.426Z,19.93
2019-01-25T16:10:17.150Z,18.37
2019-01-25T16:12:46.313Z,16.07
2019-01-25T16:15:17.538Z,16.07
2019-01-25T16:18:01.443Z,13.60
2019-01-25T16:20:30.541Z,13.83
2019-01-25T16:22:59.650Z,14.13
2019-01-25T16:25:30.655Z,17.27
2019-01-25T16:27:59.796Z,16.77
2019-01-25T16:30:30.840Z,16.87
2019-01-25T16:33:01.550Z,15.17
2019-01-25T16:35:30.750Z,15.07
2019-01-25T16:38:00.072Z,17.07
2019-01-25T16:40:29.861Z,16.90
2019-01-25T16:43:09.761Z,18.07
2019-01-25T16:45:41.044Z,19.10
2019-01-25T16:48:24.749Z,20.53
2019-01-25T16:50:53.872Z,24.43
2019-01-25T16:53:26.666Z,20.23
2019-01-25T16:55:55.764Z,23.67
2019-01-25T16:58:25.164Z,20.57
2019-01-25T17:00:58.527Z,23.27
2019-01-25T17:03:37.932Z,20.10
2019-01-25T17:05:58.856Z,22.83
2019-01-25T17:08:28.240Z,23.00
2019-01-25T17:10:57.303Z,21.77
2019-01-25T17:13:28.092Z,20.97
2019-01-25T17:16:06.467Z,24.33
2019-01-25T17:18:35.848Z,22.70
2019-01-25T17:21:06.359Z,24.07
2019-01-25T17:23:35.682Z,23.87
2019-01-25T17:26:05.139Z,22.33
2019-01-25T17:28:34.481Z,25.07
2019-01-25T17:31:30.795Z,21.77
2019-01-25T17:34:00.180Z,25.70
2019-01-25T17:36:40.393Z,22.87
2019-01-25T17:42:52.114Z,28.73
2019-01-25T17:45:31.037Z,25.33
2019-01-25T17:48:01.498Z,28.33
2019-01-25T17:50:30.836Z,29.30
2019-01-25T17:53:03.006Z,32.00
2019-01-25T17:55:32.493Z,26.73
2019-01-25T17:58:08.028Z,27.50
2019-01-25T18:01:02.160Z,31.10
2019-01-25T18:03:31.483Z,26.67
2019-01-25T18:06:00.838Z,31.83
2019-01-25T18:08:29.939Z,31.00
2019-01-25T18:10:59.075Z,30.90
2019-01-25T18:13:34.319Z,28.80
2019-01-25T18:16:03.524Z,35.67
2019-01-25T18:19:05.588Z,34.47
2019-01-25T18:21:34.858Z,48.13
2019-01-25T18:24:04.075Z,39.27
2019-01-25T18:26:33.620Z,38.80
2019-01-25T18:29:09.363Z,46.83
2019-01-25T18:31:38.767Z,36.93
2019-01-25T18:34:12.352Z,58.17
2019-01-25T18:37:00.636Z,65.77
2019-01-25T18:39:36.643Z,58.60
2019-01-25T18:43:02.631Z,65.50
2019-01-25T18:45:58.910Z,47.17
2019-01-25T18:48:30.576Z,56.73
2019-01-25T18:53:48.196Z,48.70
2019-01-25T18:56:11.046Z,68.87
2019-01-25T18:58:40.749Z,95.13
2019-01-25T19:01:10.058Z,64.83
2019-01-25T19:03:39.484Z,75.70
2019-01-25T19:06:19.442Z,50.13
2019-01-25T19:08:57.104Z,37.20
2019-01-25T19:11:43.898Z,40.53
2019-01-25T19:14:51.062Z,38.30
2019-01-25T19:17:33.162Z,32.73
2019-01-25T19:22:52.241Z,41.77
2019-01-25T19:25:22.007Z,29.73
2019-01-25T19:28:02.572Z,31.20
2019-01-25T19:33:30.197Z,38.67
2019-01-25T19:36:11.949Z,29.53
2019-01-25T19:38:42.431Z,35.13
2019-01-25T19:41:13.866Z,34.43
2019-01-25T19:43:43.052Z,30.40
2019-01-25T19:46:14.205Z,35.17
2019-01-25T19:48:43.328Z,31.93
2019-01-25T19:51:23.539Z,31.50
2019-01-25T19:53:53.301Z,30.83
2019-01-25T19:56:22.523Z,38.00
2019-01-25T19:58:51.607Z,35.43
2019-01-25T20:01:20.907Z,34.93
2019-01-25T20:03:50.171Z,33.60
2019-01-25T20:06:19.562Z,31.67
2019-01-25T20:08:48.754Z,37.43
2019-01-25T20:11:18.002Z,33.20
2019-01-25T20:13:47.411Z,33.27
2019-01-25T20:16:16.971Z,33.87
2019-01-25T20:18:48.695Z,34.33
2019-01-25T20:21:17.740Z,45.03
2019-01-25T20:23:53.865Z,46.57
2019-01-25T20:26:23.286Z,45.23
2019-01-25T20:28:52.431Z,48.33
2019-01-25T20:31:21.533Z,53.87
2019-01-25T20:33:50.904Z,55.67
2019-01-25T20:36:20.095Z,48.53
2019-01-25T20:38:49.287Z,45.67
2019-01-25T20:41:19.053Z,39.90
2019-01-25T20:43:48.275Z,37.17
2019-01-25T20:46:17.557Z,45.93
2019-01-25T20:48:46.672Z,39.70
2019-01-25T20:51:20.474Z,43.30
2019-01-25T20:53:49.569Z,41.90
2019-01-25T20:56:18.873Z,43.90
2019-01-25T20:58:47.978Z,47.33
2019-01-25T21:01:16.982Z,43.00
2019-01-25T21:03:46.136Z,35.83
2019-01-25T21:06:15.368Z,37.70
2019-01-25T21:08:44.565Z,34.10
2019-01-25T21:11:14.253Z,32.20
2019-01-25T21:13:43.363Z,28.57
2019-01-25T21:16:12.584Z,29.57
2019-01-25T21:18:41.571Z,28.83
2019-01-25T21:21:11.113Z,34.77
2019-01-25T21:23:40.598Z,32.20
2019-01-25T21:26:09.981Z,34.13
2019-01-25T21:28:38.944Z,33.00
2019-01-25T21:31:08.444Z,33.97
2019-01-25T21:33:37.643Z,33.23
2019-01-25T21:36:06.718Z,28.47
2019-01-25T21:38:35.787Z,33.83
2019-01-25T21:41:05.601Z,28.57
2019-01-25T21:43:35.049Z,30.77
2019-01-25T21:46:04.305Z,28.67
2019-01-25T21:48:33.323Z,29.10
2019-01-25T21:51:02.371Z,28.93
2019-01-25T21:53:31.788Z,30.53
2019-01-25T21:56:00.978Z,29.53
2019-01-25T21:58:29.897Z,31.87
2019-01-25T22:00:59.395Z,30.73
2019-01-25T22:03:28.548Z,34.60
2019-01-25T22:05:57.614Z,29.27
2019-01-25T22:08:26.693Z,24.27
2019-01-25T22:10:55.981Z,28.20
2019-01-25T22:13:24.976Z,36.33
2019-01-25T22:15:53.975Z,58.83
2019-01-25T22:18:22.937Z,70.97
2019-01-25T22:20:51.960Z,90.50
2019-01-25T22:23:20.803Z,109.17
2019-01-25T22:25:49.833Z,87.77
2019-01-25T22:28:18.815Z,105.93
2019-01-25T22:30:48.086Z,62.10
2019-01-25T22:33:17.150Z,68.67
2019-01-25T22:35:46.141Z,93.43
2019-01-25T22:38:15.142Z,69.50
2019-01-25T22:40:44.318Z,47.63
2019-01-25T22:43:13.973Z,42.37
2019-01-25T22:45:43.015Z,32.73
2019-01-25T22:48:12.304Z,30.23
2019-01-25T22:50:41.308Z,32.93
2019-01-25T22:53:10.728Z,33.93
2019-01-25T22:55:39.785Z,36.40
2019-01-25T22:58:08.830Z,29.20
2019-01-25T23:01:12.734Z,22.77
2019-01-25T23:04:33.606Z,24.40
2019-01-25T23:07:13.991Z,26.30
2019-01-25T23:09:51.062Z,25.50
2019-01-25T23:12:19.992Z,21.73
2019-01-25T23:14:49.018Z,20.97
2019-01-25T23:17:18.034Z,18.73
2019-01-25T23:19:47.094Z,19.07
2019-01-25T23:22:16.071Z,21.97
2019-01-25T23:24:44.889Z,20.27
2019-01-25T23:27:13.797Z,21.47
2019-01-25T23:29:42.906Z,15.60
2019-01-25T23:32:11.778Z,16.23
2019-01-25T23:34:40.678Z,16.20
2019-01-25T23:37:09.709Z,20.77
2019-01-25T23:39:38.558Z,25.60
2019-01-25T23:42:07.547Z,20.27
2019-01-25T23:44:36.507Z,27.23
2019-01-25T23:47:05.503Z,18.87
2019-01-25T23:49:34.450Z,17.50
2019-01-25T23:52:03.349Z,21.57
2019-01-25T23:54:32.343Z,19.50
2019-01-25T23:57:01.211Z,23.70
2019-01-25T23:59:30.108Z,20.70
